sensor_id;sensor_type;location;lat;lon;timestamp;P1;P2;P0
44045;PMS7003;29709;52.396;16.796;2022-12-18T00:02:15;18;14;10
44045;PMS7003;29709;52.396;16.796;2022-12-18T00:05:18;17;14;8
44045;PMS7003;29709;52.396;16.796;2022-12-18T00:08:21;13;11;5
44045;PMS7003;29709;52.396;16.796;2022-12-18T00:11:52;19;16;10
44045;PMS7003;29709;52.396;16.796;2022-12-18T00:14:54;14;12;8
44045;PMS7003;29709;52.396;16.796;2022-12-18T00:17:57;20;16;9
44045;PMS7003;29709;52.396;16.796;2022-12-18T00:21:01;15;13;8
44045;PMS7003;29709;52.396;16.796;2022-12-18T00:24:06;17;14;10
44045;PMS7003;29709;52.396;16.796;2022-12-18T00:27:10;8;8;3
44045;PMS7003;29709;52.396;16.796;2022-12-18T00:30:13;17;11;8
44045;PMS7003;29709;52.396;16.796;2022-12-18T00:33:17;13;12;9
44045;PMS7003;29709;52.396;16.796;2022-12-18T00:36:21;17;14;8
44045;PMS7003;29709;52.396;16.796;2022-12-18T00:39:26;14;14;9
44045;PMS7003;29709;52.396;16.796;2022-12-18T00:42:54;16;16;10
44045;PMS7003;29709;52.396;16.796;2022-12-18T00:46:00;19;13;8
44045;PMS7003;29709;52.396;16.796;2022-12-18T00:49:03;11;7;2
44045;PMS7003;29709;52.396;16.796;2022-12-18T00:52:06;18;15;10
44045;PMS7003;29709;52.396;16.796;2022-12-18T00:55:09;20;16;10
44045;PMS7003;29709;52.396;16.796;2022-12-18T00:58:13;8;7;3
44045;PMS7003;29709;52.396;16.796;2022-12-18T01:01:18;12;10;5
44045;PMS7003;29709;52.396;16.796;2022-12-18T01:04:21;15;12;6
44045;PMS7003;29709;52.396;16.796;2022-12-18T01:07:23;17;14;10
44045;PMS7003;29709;52.396;16.796;2022-12-18T01:10:26;18;14;9
44045;PMS7003;29709;52.396;16.796;2022-12-18T01:13:55;18;15;9
44045;PMS7003;29709;52.396;16.796;2022-12-18T01:16:58;23;18;12
44045;PMS7003;29709;52.396;16.796;2022-12-18T01:20:01;20;18;12
44045;PMS7003;29709;52.396;16.796;2022-12-18T01:23:04;15;11;6
44045;PMS7003;29709;52.396;16.796;2022-12-18T01:26:08;16;14;10
44045;PMS7003;29709;52.396;16.796;2022-12-18T01:29:12;17;15;10
44045;PMS7003;29709;52.396;16.796;2022-12-18T01:32:15;17;10;7
44045;PMS7003;29709;52.396;16.796;2022-12-18T01:35:18;18;16;11
44045;PMS7003;29709;52.396;16.796;2022-12-18T01:38:21;20;17;10
44045;PMS7003;29709;52.396;16.796;2022-12-18T01:41:25;18;14;9
44045;PMS7003;29709;52.396;16.796;2022-12-18T01:48:25;14;9;5
44045;PMS7003;29709;52.396;16.796;2022-12-18T01:51:28;25;19;13
44045;PMS7003;29709;52.396;16.796;2022-12-18T01:54:33;14;12;9
44045;PMS7003;29709;52.396;16.796;2022-12-18T01:57:36;14;13;8
44045;PMS7003;29709;52.396;16.796;2022-12-18T02:00:40;13;11;7
44045;PMS7003;29709;52.396;16.796;2022-12-18T02:03:44;9;7;4
44045;PMS7003;29709;52.396;16.796;2022-12-18T02:06:47;21;19;11
44045;PMS7003;29709;52.396;16.796;2022-12-18T02:10:27;18;16;9
44045;PMS7003;29709;52.396;16.796;2022-12-18T02:16:51;17;14;10
44045;PMS7003;29709;52.396;16.796;2022-12-18T02:23:45;16;10;5
44045;PMS7003;29709;52.396;16.796;2022-12-18T02:26:58;22;18;9
44045;PMS7003;29709;52.396;16.796;2022-12-18T02:30:05;18;14;10
44045;PMS7003;29709;52.396;16.796;2022-12-18T02:33:11;22;17;12
44045;PMS7003;29709;52.396;16.796;2022-12-18T02:36:16;13;12;9
44045;PMS7003;29709;52.396;16.796;2022-12-18T02:39:22;19;17;11
44045;PMS7003;29709;52.396;16.796;2022-12-18T02:42:54;22;13;7
44045;PMS7003;29709;52.396;16.796;2022-12-18T02:45:58;18;17;10
44045;PMS7003;29709;52.396;16.796;2022-12-18T02:49:14;21;16;12
44045;PMS7003;29709;52.396;16.796;2022-12-18T02:59:19;21;18;12
44045;PMS7003;29709;52.396;16.796;2022-12-18T03:05:47;10;7;4
44045;PMS7003;29709;52.396;16.796;2022-12-18T03:09:00;16;13;8
44045;PMS7003;29709;52.396;16.796;2022-12-18T03:12:14;15;14;11
44045;PMS7003;29709;52.396;16.796;2022-12-18T03:15:30;22;17;10
44045;PMS7003;29709;52.396;16.796;2022-12-18T03:21:53;18;15;11
44045;PMS7003;29709;52.396;16.796;2022-12-18T03:25:04;13;10;9
44045;PMS7003;29709;52.396;16.796;2022-12-18T03:28:12;23;18;11
44045;PMS7003;29709;52.396;16.796;2022-12-18T03:31:18;19;17;11
44045;PMS7003;29709;52.396;16.796;2022-12-18T03:34:34;15;11;6
44045;PMS7003;29709;52.396;16.796;2022-12-18T03:37:35;15;13;9
44045;PMS7003;29709;52.396;16.796;2022-12-18T03:41:10;9;8;7
44045;PMS7003;29709;52.396;16.796;2022-12-18T03:44:21;17;12;7
44045;PMS7003;29709;52.396;16.796;2022-12-18T03:50:45;11;10;7
44045;PMS7003;29709;52.396;16.796;2022-12-18T03:53:53;12;10;7
44045;PMS7003;29709;52.396;16.796;2022-12-18T03:57:04;18;13;8
44045;PMS7003;29709;52.396;16.796;2022-12-18T04:00:13;14;11;8
44045;PMS7003;29709;52.396;16.796;2022-12-18T04:03:19;15;14;9
44045;PMS7003;29709;52.396;16.796;2022-12-18T04:06:49;20;13;8
44045;PMS7003;29709;52.396;16.796;2022-12-18T04:09:55;21;18;12
44045;PMS7003;29709;52.396;16.796;2022-12-18T04:13:01;17;15;9
44045;PMS7003;29709;52.396;16.796;2022-12-18T04:16:04;16;13;9
44045;PMS7003;29709;52.396;16.796;2022-12-18T04:19:07;13;12;8
44045;PMS7003;29709;52.396;16.796;2022-12-18T04:22:10;15;12;9
44045;PMS7003;29709;52.396;16.796;2022-12-18T04:25:13;12;9;6
44045;PMS7003;29709;52.396;16.796;2022-12-18T04:28:16;13;9;6
44045;PMS7003;29709;52.396;16.796;2022-12-18T04:31:19;8;6;2
44045;PMS7003;29709;52.396;16.796;2022-12-18T04:34:22;13;10;5
44045;PMS7003;29709;52.396;16.796;2022-12-18T04:37:50;16;11;7
44045;PMS7003;29709;52.396;16.796;2022-12-18T04:40:53;14;11;8
44045;PMS7003;29709;52.396;16.796;2022-12-18T04:43:56;11;9;6
44045;PMS7003;29709;52.396;16.796;2022-12-18T04:46:59;14;11;8
44045;PMS7003;29709;52.396;16.796;2022-12-18T04:50:02;16;14;10
44045;PMS7003;29709;52.396;16.796;2022-12-18T04:53:05;19;12;9
44045;PMS7003;29709;52.396;16.796;2022-12-18T04:56:09;22;13;5
44045;PMS7003;29709;52.396;16.796;2022-12-18T04:59:14;14;10;7
44045;PMS7003;29709;52.396;16.796;2022-12-18T05:02:17;15;15;11
44045;PMS7003;29709;52.396;16.796;2022-12-18T05:05:20;19;17;10
44045;PMS7003;29709;52.396;16.796;2022-12-18T05:08:50;20;16;11
44045;PMS7003;29709;52.396;16.796;2022-12-18T05:11:52;16;10;6
44045;PMS7003;29709;52.396;16.796;2022-12-18T05:15:00;22;17;10
44045;PMS7003;29709;52.396;16.796;2022-12-18T05:18:03;18;16;9
44045;PMS7003;29709;52.396;16.796;2022-12-18T05:21:07;21;19;12
44045;PMS7003;29709;52.396;16.796;2022-12-18T05:24:10;20;16;9
44045;PMS7003;29709;52.396;16.796;2022-12-18T05:27:13;12;12;6
44045;PMS7003;29709;52.396;16.796;2022-12-18T05:30:16;3;3;0
44045;PMS7003;29709;52.396;16.796;2022-12-18T05:33:20;13;12;7
44045;PMS7003;29709;52.396;16.796;2022-12-18T05:36:24;10;9;7
44045;PMS7003;29709;52.396;16.796;2022-12-18T05:39:28;11;10;7
44045;PMS7003;29709;52.396;16.796;2022-12-18T05:42:56;12;9;7
44045;PMS7003;29709;52.396;16.796;2022-12-18T05:46:03;16;13;8
44045;PMS7003;29709;52.396;16.796;2022-12-18T05:52:21;18;14;9
44045;PMS7003;29709;52.396;16.796;2022-12-18T05:55:26;13;12;8
44045;PMS7003;29709;52.396;16.796;2022-12-18T05:58:32;12;12;8
44045;PMS7003;29709;52.396;16.796;2022-12-18T06:01:36;16;12;7
44045;PMS7003;29709;52.396;16.796;2022-12-18T06:04:38;15;11;6
44045;PMS7003;29709;52.396;16.796;2022-12-18T06:08:10;14;12;7
44045;PMS7003;29709;52.396;16.796;2022-12-18T06:11:15;14;9;5
44045;PMS7003;29709;52.396;16.796;2022-12-18T06:14:20;15;15;9
44045;PMS7003;29709;52.396;16.796;2022-12-18T06:17:27;10;8;6
44045;PMS7003;29709;52.396;16.796;2022-12-18T06:20:31;14;13;10
44045;PMS7003;29709;52.396;16.796;2022-12-18T06:23:35;15;13;8
44045;PMS7003;29709;52.396;16.796;2022-12-18T06:26:38;17;14;10
44045;PMS7003;29709;52.396;16.796;2022-12-18T06:29:41;9;8;3
44045;PMS7003;29709;52.396;16.796;2022-12-18T06:32:44;12;11;7
44045;PMS7003;29709;52.396;16.796;2022-12-18T06:36:15;14;13;8
44045;PMS7003;29709;52.396;16.796;2022-12-18T06:39:18;14;11;7
44045;PMS7003;29709;52.396;16.796;2022-12-18T06:42:21;18;16;10
44045;PMS7003;29709;52.396;16.796;2022-12-18T06:45:25;22;14;10
44045;PMS7003;29709;52.396;16.796;2022-12-18T06:48:28;14;13;7
44045;PMS7003;29709;52.396;16.796;2022-12-18T06:51:31;13;12;6
44045;PMS7003;29709;52.396;16.796;2022-12-18T06:54:34;11;9;6
44045;PMS7003;29709;52.396;16.796;2022-12-18T06:57:40;17;13;8
44045;PMS7003;29709;52.396;16.796;2022-12-18T07:00:43;16;16;11
44045;PMS7003;29709;52.396;16.796;2022-12-18T07:03:51;14;12;8
44045;PMS7003;29709;52.396;16.796;2022-12-18T07:07:24;16;13;8
44045;PMS7003;29709;52.396;16.796;2022-12-18T07:10:27;19;16;10
44045;PMS7003;29709;52.396;16.796;2022-12-18T07:13:30;13;12;8
44045;PMS7003;29709;52.396;16.796;2022-12-18T07:16:33;17;12;8
44045;PMS7003;29709;52.396;16.796;2022-12-18T07:19:36;19;14;7
44045;PMS7003;29709;52.396;16.796;2022-12-18T07:22:39;16;13;9
44045;PMS7003;29709;52.396;16.796;2022-12-18T07:25:42;10;7;4
44045;PMS7003;29709;52.396;16.796;2022-12-18T07:28:45;12;9;5
44045;PMS7003;29709;52.396;16.796;2022-12-18T07:31:48;14;11;6
44045;PMS7003;29709;52.396;16.796;2022-12-18T07:34:53;13;10;6
44045;PMS7003;29709;52.396;16.796;2022-12-18T07:38:24;12;8;5
44045;PMS7003;29709;52.396;16.796;2022-12-18T07:41:27;14;12;8
44045;PMS7003;29709;52.396;16.796;2022-12-18T07:44:29;19;12;4
44045;PMS7003;29709;52.396;16.796;2022-12-18T07:47:35;15;11;7
44045;PMS7003;29709;52.396;16.796;2022-12-18T07:50:40;13;11;6
44045;PMS7003;29709;52.396;16.796;2022-12-18T07:53:45;14;12;8
44045;PMS7003;29709;52.396;16.796;2022-12-18T07:56:50;14;11;7
44045;PMS7003;29709;52.396;16.796;2022-12-18T07:59:55;15;14;9
44045;PMS7003;29709;52.396;16.796;2022-12-18T08:03:00;14;11;7
44045;PMS7003;29709;52.396;16.796;2022-12-18T08:06:34;15;11;6
44045;PMS7003;29709;52.396;16.796;2022-12-18T08:09:37;13;9;3
44045;PMS7003;29709;52.396;16.796;2022-12-18T08:12:44;12;10;6
44045;PMS7003;29709;52.396;16.796;2022-12-18T08:15:59;16;12;8
44045;PMS7003;29709;52.396;16.796;2022-12-18T08:19:04;13;12;9
44045;PMS7003;29709;52.396;16.796;2022-12-18T08:22:07;17;13;9
44045;PMS7003;29709;52.396;16.796;2022-12-18T08:25:11;16;14;9
44045;PMS7003;29709;52.396;16.796;2022-12-18T08:28:42;20;18;12
44045;PMS7003;29709;52.396;16.796;2022-12-18T08:31:45;11;8;4
44045;PMS7003;29709;52.396;16.796;2022-12-18T08:34:48;18;14;8
44045;PMS7003;29709;52.396;16.796;2022-12-18T08:37:52;14;11;7
44045;PMS7003;29709;52.396;16.796;2022-12-18T08:41:00;17;15;9
44045;PMS7003;29709;52.396;16.796;2022-12-18T08:44:07;15;13;8
44045;PMS7003;29709;52.396;16.796;2022-12-18T08:47:22;14;12;8
44045;PMS7003;29709;52.396;16.796;2022-12-18T08:50:25;14;11;6
44045;PMS7003;29709;52.396;16.796;2022-12-18T08:53:54;15;12;8
44045;PMS7003;29709;52.396;16.796;2022-12-18T08:56:57;13;10;6
44045;PMS7003;29709;52.396;16.796;2022-12-18T09:00:00;19;15;8
44045;PMS7003;29709;52.396;16.796;2022-12-18T09:03:03;18;15;11
44045;PMS7003;29709;52.396;16.796;2022-12-18T09:06:06;17;14;9
44045;PMS7003;29709;52.396;16.796;2022-12-18T09:09:12;5;4;0
44045;PMS7003;29709;52.396;16.796;2022-12-18T09:12:19;18;15;11
44045;PMS7003;29709;52.396;16.796;2022-12-18T09:15:24;14;14;9
44045;PMS7003;29709;52.396;16.796;2022-12-18T09:18:31;18;15;11
44045;PMS7003;29709;52.396;16.796;2022-12-18T09:21:59;15;14;10
44045;PMS7003;29709;52.396;16.796;2022-12-18T09:25:04;20;18;12
44045;PMS7003;29709;52.396;16.796;2022-12-18T09:28:14;30;27;18
44045;PMS7003;29709;52.396;16.796;2022-12-18T09:31:19;29;25;15
44045;PMS7003;29709;52.396;16.796;2022-12-18T09:34:23;31;27;18
44045;PMS7003;29709;52.396;16.796;2022-12-18T09:37:26;16;12;6
44045;PMS7003;29709;52.396;16.796;2022-12-18T09:40:33;19;15;5
44045;PMS7003;29709;52.396;16.796;2022-12-18T09:43:45;16;13;6
44045;PMS7003;29709;52.396;16.796;2022-12-18T09:47:02;16;15;10
44045;PMS7003;29709;52.396;16.796;2022-12-18T09:50:16;17;15;12
44045;PMS7003;29709;52.396;16.796;2022-12-18T09:53:26;13;10;9
44045;PMS7003;29709;52.396;16.796;2022-12-18T09:56:34;22;21;12
44045;PMS7003;29709;52.396;16.796;2022-12-18T09:59:42;20;17;13
44045;PMS7003;29709;52.396;16.796;2022-12-18T10:02:55;11;9;5
44045;PMS7003;29709;52.396;16.796;2022-12-18T10:09:23;18;17;10
44045;PMS7003;29709;52.396;16.796;2022-12-18T10:19:07;13;12;7
44045;PMS7003;29709;52.396;16.796;2022-12-18T10:22:21;16;13;8
44045;PMS7003;29709;52.396;16.796;2022-12-18T10:25:33;18;16;12
44045;PMS7003;29709;52.396;16.796;2022-12-18T10:28:46;21;20;12
44045;PMS7003;29709;52.396;16.796;2022-12-18T10:32:16;14;6;2
44045;PMS7003;29709;52.396;16.796;2022-12-18T10:35:25;16;14;9
44045;PMS7003;29709;52.396;16.796;2022-12-18T10:38:30;7;6;3
44045;PMS7003;29709;52.396;16.796;2022-12-18T10:41:34;17;10;6
44045;PMS7003;29709;52.396;16.796;2022-12-18T10:44:37;14;11;8
44045;PMS7003;29709;52.396;16.796;2022-12-18T10:47:42;17;16;10
44045;PMS7003;29709;52.396;16.796;2022-12-18T10:50:50;11;7;6
44045;PMS7003;29709;52.396;16.796;2022-12-18T10:53:58;17;14;10
44045;PMS7003;29709;52.396;16.796;2022-12-18T11:03:29;20;15;11
44045;PMS7003;29709;52.396;16.796;2022-12-18T11:06:34;19;13;8
44045;PMS7003;29709;52.396;16.796;2022-12-18T11:09:58;15;13;9
44045;PMS7003;29709;52.396;16.796;2022-12-18T11:16:20;18;16;10
44045;PMS7003;29709;52.396;16.796;2022-12-18T11:22:35;19;15;10
44045;PMS7003;29709;52.396;16.796;2022-12-18T11:25:40;9;6;3
44045;PMS7003;29709;52.396;16.796;2022-12-18T11:29:07;12;9;6
44045;PMS7003;29709;52.396;16.796;2022-12-18T11:35:32;16;10;7
44045;PMS7003;29709;52.396;16.796;2022-12-18T11:38:39;19;13;10
44045;PMS7003;29709;52.396;16.796;2022-12-18T11:45:20;14;13;7
44045;PMS7003;29709;52.396;16.796;2022-12-18T11:48:30;22;19;13
44045;PMS7003;29709;52.396;16.796;2022-12-18T11:54:51;14;13;7
44045;PMS7003;29709;52.396;16.796;2022-12-18T12:01:40;16;13;10
44045;PMS7003;29709;52.396;16.796;2022-12-18T12:24:31;9;8;5
44045;PMS7003;29709;52.396;16.796;2022-12-18T12:27:47;19;15;8
44045;PMS7003;29709;52.396;16.796;2022-12-18T12:37:30;21;16;12
44045;PMS7003;29709;52.396;16.796;2022-12-18T12:40:41;12;12;9
44045;PMS7003;29709;52.396;16.796;2022-12-18T12:43:52;14;11;7
44045;PMS7003;29709;52.396;16.796;2022-12-18T12:47:00;19;16;10
44045;PMS7003;29709;52.396;16.796;2022-12-18T12:50:15;20;16;11
44045;PMS7003;29709;52.396;16.796;2022-12-18T12:53:23;28;22;14
44045;PMS7003;29709;52.396;16.796;2022-12-18T13:09:24;18;15;8
44045;PMS7003;29709;52.396;16.796;2022-12-18T13:12:56;17;15;10
44045;PMS7003;29709;52.396;16.796;2022-12-18T13:19:18;23;18;11
44045;PMS7003;29709;52.396;16.796;2022-12-18T13:22:34;24;21;15
44045;PMS7003;29709;52.396;16.796;2022-12-18T13:25:38;25;22;15
44045;PMS7003;29709;52.396;16.796;2022-12-18T13:29:06;15;12;8
44045;PMS7003;29709;52.396;16.796;2022-12-18T13:38:39;22;22;15
44045;PMS7003;29709;52.396;16.796;2022-12-18T13:41:44;23;22;15
44045;PMS7003;29709;52.396;16.796;2022-12-18T13:44:49;18;15;10
44045;PMS7003;29709;52.396;16.796;2022-12-18T13:48:20;21;18;13
44045;PMS7003;29709;52.396;16.796;2022-12-18T13:51:25;12;11;5
44045;PMS7003;29709;52.396;16.796;2022-12-18T13:57:40;24;21;14
44045;PMS7003;29709;52.396;16.796;2022-12-18T14:00:46;19;17;11
44045;PMS7003;29709;52.396;16.796;2022-12-18T14:03:49;33;21;13
44045;PMS7003;29709;52.396;16.796;2022-12-18T14:10:13;19;16;10
44045;PMS7003;29709;52.396;16.796;2022-12-18T14:13:21;23;19;11
44045;PMS7003;29709;52.396;16.796;2022-12-18T14:16:30;23;20;13
44045;PMS7003;29709;52.396;16.796;2022-12-18T14:19:59;20;14;8
44045;PMS7003;29709;52.396;16.796;2022-12-18T14:23:02;19;14;12
44045;PMS7003;29709;52.396;16.796;2022-12-18T14:29:26;20;17;12
44045;PMS7003;29709;52.396;16.796;2022-12-18T14:32:30;28;23;16
44045;PMS7003;29709;52.396;16.796;2022-12-18T14:35:34;22;20;13
44045;PMS7003;29709;52.396;16.796;2022-12-18T14:38:40;23;19;12
44045;PMS7003;29709;52.396;16.796;2022-12-18T14:42:10;20;20;13
44045;PMS7003;29709;52.396;16.796;2022-12-18T14:51:42;35;28;19
44045;PMS7003;29709;52.396;16.796;2022-12-18T14:54:57;28;23;14
44045;PMS7003;29709;52.396;16.796;2022-12-18T15:00:46;31;27;17
44045;PMS7003;29709;52.396;16.796;2022-12-18T15:03:50;18;15;8
44045;PMS7003;29709;52.396;16.796;2022-12-18T15:10:11;19;15;8
44045;PMS7003;29709;52.396;16.796;2022-12-18T15:13:22;14;10;3
44045;PMS7003;29709;52.396;16.796;2022-12-18T15:16:27;19;17;12
44045;PMS7003;29709;52.396;16.796;2022-12-18T15:19:59;35;30;20
44045;PMS7003;29709;52.396;16.796;2022-12-18T15:23:04;34;28;18
44045;PMS7003;29709;52.396;16.796;2022-12-18T15:26:13;27;23;16
44045;PMS7003;29709;52.396;16.796;2022-12-18T15:29:19;27;21;14
44045;PMS7003;29709;52.396;16.796;2022-12-18T15:32:25;28;21;14
44045;PMS7003;29709;52.396;16.796;2022-12-18T15:35:28;26;22;15
44045;PMS7003;29709;52.396;16.796;2022-12-18T15:38:31;36;26;15
44045;PMS7003;29709;52.396;16.796;2022-12-18T15:41:34;23;19;12
44045;PMS7003;29709;52.396;16.796;2022-12-18T15:45:10;19;17;13
44045;PMS7003;29709;52.396;16.796;2022-12-18T15:48:18;24;20;14
44045;PMS7003;29709;52.396;16.796;2022-12-18T15:51:26;28;22;14
44045;PMS7003;29709;52.396;16.796;2022-12-18T15:54:31;30;25;16
44045;PMS7003;29709;52.396;16.796;2022-12-18T15:57:47;33;26;16
44045;PMS7003;29709;52.396;16.796;2022-12-18T16:00:50;33;21;14
44045;PMS7003;29709;52.396;16.796;2022-12-18T16:04:21;15;14;7
44045;PMS7003;29709;52.396;16.796;2022-12-18T16:07:26;26;22;14
44045;PMS7003;29709;52.396;16.796;2022-12-18T16:10:30;22;20;14
44045;PMS7003;29709;52.396;16.796;2022-12-18T16:13:33;26;22;17
44045;PMS7003;29709;52.396;16.796;2022-12-18T16:16:39;28;26;17
44045;PMS7003;29709;52.396;16.796;2022-12-18T16:19:42;21;19;12
44045;PMS7003;29709;52.396;16.796;2022-12-18T16:22:45;23;18;13
44045;PMS7003;29709;52.396;16.796;2022-12-18T16:25:50;19;14;8
44045;PMS7003;29709;52.396;16.796;2022-12-18T16:28:54;26;22;13
44045;PMS7003;29709;52.396;16.796;2022-12-18T16:32:24;28;21;13
44045;PMS7003;29709;52.396;16.796;2022-12-18T16:35:27;23;18;11
44045;PMS7003;29709;52.396;16.796;2022-12-18T16:38:30;23;21;15
44045;PMS7003;29709;52.396;16.796;2022-12-18T16:41:33;19;16;12
44045;PMS7003;29709;52.396;16.796;2022-12-18T16:44:37;24;19;11
44045;PMS7003;29709;52.396;16.796;2022-12-18T16:47:40;31;27;17
44045;PMS7003;29709;52.396;16.796;2022-12-18T16:50:43;28;22;16
44045;PMS7003;29709;52.396;16.796;2022-12-18T16:53:46;25;23;16
44045;PMS7003;29709;52.396;16.796;2022-12-18T16:56:50;15;12;8
44045;PMS7003;29709;52.396;16.796;2022-12-18T16:59:53;23;18;11
44045;PMS7003;29709;52.396;16.796;2022-12-18T17:03:24;31;27;17
44045;PMS7003;29709;52.396;16.796;2022-12-18T17:06:29;30;27;18
44045;PMS7003;29709;52.396;16.796;2022-12-18T17:09:34;25;24;16
44045;PMS7003;29709;52.396;16.796;2022-12-18T17:12:38;24;21;16
44045;PMS7003;29709;52.396;16.796;2022-12-18T17:15:41;29;26;16
44045;PMS7003;29709;52.396;16.796;2022-12-18T17:18:44;28;25;15
44045;PMS7003;29709;52.396;16.796;2022-12-18T17:21:47;25;20;12
44045;PMS7003;29709;52.396;16.796;2022-12-18T17:24:52;25;23;14
44045;PMS7003;29709;52.396;16.796;2022-12-18T17:27:55;18;12;8
44045;PMS7003;29709;52.396;16.796;2022-12-18T17:30:58;20;18;11
44045;PMS7003;29709;52.396;16.796;2022-12-18T17:34:27;24;18;13
44045;PMS7003;29709;52.396;16.796;2022-12-18T17:37:30;23;20;15
44045;PMS7003;29709;52.396;16.796;2022-12-18T17:40:34;15;13;9
44045;PMS7003;29709;52.396;16.796;2022-12-18T17:43:37;22;18;10
44045;PMS7003;29709;52.396;16.796;2022-12-18T17:46:48;22;19;14
44045;PMS7003;29709;52.396;16.796;2022-12-18T17:49:52;20;19;13
44045;PMS7003;29709;52.396;16.796;2022-12-18T17:52:55;19;18;12
44045;PMS7003;29709;52.396;16.796;2022-12-18T17:56:01;15;11;7
44045;PMS7003;29709;52.396;16.796;2022-12-18T17:59:33;14;14;9
44045;PMS7003;29709;52.396;16.796;2022-12-18T18:02:36;15;11;7
44045;PMS7003;29709;52.396;16.796;2022-12-18T18:05:40;25;21;15
44045;PMS7003;29709;52.396;16.796;2022-12-18T18:08:43;20;18;13
44045;PMS7003;29709;52.396;16.796;2022-12-18T18:11:46;19;16;10
44045;PMS7003;29709;52.396;16.796;2022-12-18T18:15:01;19;18;12
44045;PMS7003;29709;52.396;16.796;2022-12-18T18:18:04;21;18;12
44045;PMS7003;29709;52.396;16.796;2022-12-18T18:21:08;28;19;13
44045;PMS7003;29709;52.396;16.796;2022-12-18T18:24:38;18;17;10
44045;PMS7003;29709;52.396;16.796;2022-12-18T18:27:41;17;15;11
44045;PMS7003;29709;52.396;16.796;2022-12-18T18:30:44;20;19;14
44045;PMS7003;29709;52.396;16.796;2022-12-18T18:33:47;24;20;12
44045;PMS7003;29709;52.396;16.796;2022-12-18T18:36:51;21;20;14
44045;PMS7003;29709;52.396;16.796;2022-12-18T18:39:54;27;22;18
44045;PMS7003;29709;52.396;16.796;2022-12-18T18:42:58;26;24;15
44045;PMS7003;29709;52.396;16.796;2022-12-18T18:46:02;33;29;19
44045;PMS7003;29709;52.396;16.796;2022-12-18T18:49:06;36;30;22
44045;PMS7003;29709;52.396;16.796;2022-12-18T18:52:09;25;20;13
44045;PMS7003;29709;52.396;16.796;2022-12-18T18:55:40;30;24;14
44045;PMS7003;29709;52.396;16.796;2022-12-18T18:58:43;23;18;13
44045;PMS7003;29709;52.396;16.796;2022-12-18T19:01:47;24;22;17
44045;PMS7003;29709;52.396;16.796;2022-12-18T19:04:50;34;29;19
44045;PMS7003;29709;52.396;16.796;2022-12-18T19:07:54;32;26;16
44045;PMS7003;29709;52.396;16.796;2022-12-18T19:10:57;36;31;18
44045;PMS7003;29709;52.396;16.796;2022-12-18T19:14:03;34;27;17
44045;PMS7003;29709;52.396;16.796;2022-12-18T19:17:07;20;18;9
44045;PMS7003;29709;52.396;16.796;2022-12-18T19:20:10;31;24;15
44045;PMS7003;29709;52.396;16.796;2022-12-18T19:23:14;22;22;15
44045;PMS7003;29709;52.396;16.796;2022-12-18T19:26:17;28;22;16
44045;PMS7003;29709;52.396;16.796;2022-12-18T19:29:47;28;23;16
44045;PMS7003;29709;52.396;16.796;2022-12-18T19:32:52;18;16;10
44045;PMS7003;29709;52.396;16.796;2022-12-18T19:35:55;23;19;7
44045;PMS7003;29709;52.396;16.796;2022-12-18T19:38:58;33;29;19
44045;PMS7003;29709;52.396;16.796;2022-12-18T19:42:02;22;19;15
44045;PMS7003;29709;52.396;16.796;2022-12-18T19:45:06;19;16;11
44045;PMS7003;29709;52.396;16.796;2022-12-18T19:48:09;33;28;17
44045;PMS7003;29709;52.396;16.796;2022-12-18T19:51:16;21;18;13
44045;PMS7003;29709;52.396;16.796;2022-12-18T19:54:21;28;22;12
44045;PMS7003;29709;52.396;16.796;2022-12-18T19:57:50;33;28;19
44045;PMS7003;29709;52.396;16.796;2022-12-18T20:00:53;31;23;15
44045;PMS7003;29709;52.396;16.796;2022-12-18T20:03:56;26;22;14
44045;PMS7003;29709;52.396;16.796;2022-12-18T20:07:00;33;25;15
44045;PMS7003;29709;52.396;16.796;2022-12-18T20:10:04;26;22;12
44045;PMS7003;29709;52.396;16.796;2022-12-18T20:13:08;30;24;17
44045;PMS7003;29709;52.396;16.796;2022-12-18T20:16:12;27;22;14
44045;PMS7003;29709;52.396;16.796;2022-12-18T20:19:16;34;25;16
44045;PMS7003;29709;52.396;16.796;2022-12-18T20:22:19;26;20;13
44045;PMS7003;29709;52.396;16.796;2022-12-18T20:25:22;23;19;14
44045;PMS7003;29709;52.396;16.796;2022-12-18T20:28:51;28;21;12
44045;PMS7003;29709;52.396;16.796;2022-12-18T20:31:55;28;22;15
44045;PMS7003;29709;52.396;16.796;2022-12-18T20:35:01;23;20;14
44045;PMS7003;29709;52.396;16.796;2022-12-18T20:38:04;37;26;19
44045;PMS7003;29709;52.396;16.796;2022-12-18T20:41:07;30;25;16
44045;PMS7003;29709;52.396;16.796;2022-12-18T20:44:14;26;20;15
44045;PMS7003;29709;52.396;16.796;2022-12-18T20:47:29;29;25;17
44045;PMS7003;29709;52.396;16.796;2022-12-18T20:51:00;20;16;7
44045;PMS7003;29709;52.396;16.796;2022-12-18T20:54:10;26;24;15
44045;PMS7003;29709;52.396;16.796;2022-12-18T20:57:13;25;21;11
44045;PMS7003;29709;52.396;16.796;2022-12-18T21:00:16;25;23;15
44045;PMS7003;29709;52.396;16.796;2022-12-18T21:03:19;31;27;17
44045;PMS7003;29709;52.396;16.796;2022-12-18T21:06:22;26;24;15
44045;PMS7003;29709;52.396;16.796;2022-12-18T21:09:26;32;22;13
44045;PMS7003;29709;52.396;16.796;2022-12-18T21:12:29;25;20;14
44045;PMS7003;29709;52.396;16.796;2022-12-18T21:16:06;35;27;17
44045;PMS7003;29709;52.396;16.796;2022-12-18T21:19:09;32;27;18
44045;PMS7003;29709;52.396;16.796;2022-12-18T21:22:17;40;31;20
44045;PMS7003;29709;52.396;16.796;2022-12-18T21:25:20;27;23;17
44045;PMS7003;29709;52.396;16.796;2022-12-18T21:28:23;23;18;11
44045;PMS7003;29709;52.396;16.796;2022-12-18T21:31:27;34;24;15
44045;PMS7003;29709;52.396;16.796;2022-12-18T21:34:35;33;27;16
44045;PMS7003;29709;52.396;16.796;2022-12-18T21:37:38;8;8;0
44045;PMS7003;29709;52.396;16.796;2022-12-18T21:40:41;38;30;19
44045;PMS7003;29709;52.396;16.796;2022-12-18T21:44:13;33;27;19
44045;PMS7003;29709;52.396;16.796;2022-12-18T21:47:19;33;30;21
44045;PMS7003;29709;52.396;16.796;2022-12-18T21:50:21;29;25;13
44045;PMS7003;29709;52.396;16.796;2022-12-18T21:53:25;31;27;18
44045;PMS7003;29709;52.396;16.796;2022-12-18T21:59:43;37;27;19
44045;PMS7003;29709;52.396;16.796;2022-12-18T22:02:46;25;18;15
44045;PMS7003;29709;52.396;16.796;2022-12-18T22:05:50;31;25;14
44045;PMS7003;29709;52.396;16.796;2022-12-18T22:08:53;38;29;20
44045;PMS7003;29709;52.396;16.796;2022-12-18T22:12:22;31;27;18
44045;PMS7003;29709;52.396;16.796;2022-12-18T22:15:37;38;32;19
44045;PMS7003;29709;52.396;16.796;2022-12-18T22:18:40;31;29;18
44045;PMS7003;29709;52.396;16.796;2022-12-18T22:21:44;34;29;19